Norwegian Pearl — C6VG7 — position and weather

sailwx.info

Track history (hours):
 
Tides and Currents Weather Stations Pressure Air Temp Water Temp Dewpoint Dewpoint Depression Visibility Wind Speed Wind Dir Waves Ship Positions

Norwegian Pearl

Last reported at 2017-Jun-22 15:00 UTC. Time now 2017-Jun-22 16:38 UTC.
Position N 58°42' W 136°12'.

Type: Ship. MMSI: 309653000.

Wind from 260 at 6 knots

Barometer 1030.8 mb
Air temperature 9.5 ° C
Visibility: greater than 5.4 NM
Water temperature 10.0 ° C

Date/timePositionNaut miles runAvg speedWind from/ knotsBaromVisibWave heightAir tempDewpointWater temp
2017-Jun-22 15:00N 58°42' W 136°12'2914.3 260 / 61030.8 5.4 9.5 10.0
2017-Jun-22 13:00N 58°18' W 135°42'1111.2 140 / 91029.0 9.9 4.010.0
2017-Jun-22 12:00N 58°12' W 135°24'1111.2 140 / 91029.0 9.9 4.010.0
2017-Jun-22 11:00N 58°06' W 135°06'7 6.8 090 / 91029.0 9.9 4.010.0
2017-Jun-22 10:00N 58°12' W 135°00'1818.0 230 / 71029.0 10.2 13.0
2017-Jun-22 09:00N 58°30' W 135°00'1818.3 120 / 191028.4 10.4 13.0
2017-Jun-22 08:00N 58°48' W 135°06'37 7.3 140 / 191027.0 2.2 12.0 11.0
2017-Jun-22 03:00N 59°24' W 135°18'0 0.0 190 / 201025.0 5.4 17.0 13.0
2017-Jun-22 02:00N 59°24' W 135°18'0 0.0 200 / 201025.0 5.4 17.0 13.0
2017-Jun-22 01:00N 59°24' W 135°18'0 0.0 200 / 201024.5 5.4 16.0 13.0
2017-Jun-22 00:00N 59°24' W 135°18'0 0.0 200 / 181024.2 5.4 15.5 13.0
2017-Jun-21 23:00N 59°24' W 135°18'0 0.0 190 / 91023.0 15.313.013.0
2017-Jun-21 22:00N 59°24' W 135°18'0 0.0 180 / 91023.0 15.313.013.0
2017-Jun-21 21:00N 59°24' W 135°18'0 0.0 180 / 91023.0 15.913.013.0
2017-Jun-21 19:00N 59°24' W 135°18'0 0.0 200 / 211022.0 2.2 14.0 10.0
2017-Jun-21 18:00N 59°24' W 135°18'0 0.0 200 / 211012.0 2.2 12.0 12.0
2017-Jun-21 17:00N 59°24' W 135°18'0 0.0 200 / 201012.0 2.2 13.0 10.0
2017-Jun-21 15:00N 59°24' W 135°18'18 6.0 180 / 151020.6 5.4 15.0 11.0
2017-Jun-21 12:00N 59°06' W 135°18'1313.5 150 / 91019.0 9.9 11.0
2017-Jun-21 11:00N 58°54' W 135°06'1818.3 160 / 121019.0 9.9 11.0
2017-Jun-21 10:00N 58°36' W 135°00'1413.5 150 / 51018.3 10.1 11.0
2017-Jun-21 09:00N 58°24' W 134°48'20 5.0 160 / 111018.3 10.1 11.0
2017-Jun-21 05:00N 58°12' W 134°18'3 1.6 100 / 91017.2 5.4 10.0 11.0
2017-Jun-21 03:00N 58°12' W 134°24'0 0.0 110 / 111016.8 0.1 11.0
2017-Jun-21 02:00N 58°12' W 134°24'0 0.0 120 / 201016.5 5.4 11.7 10.0
2017-Jun-21 01:00N 58°12' W 134°24'3 3.2 100 / 231016.5 5.4 11.5 10.0
2017-Jun-21 00:00N 58°12' W 134°18'0 0.0 160 / 61016.0 11.8 3.010.0
2017-Jun-20 23:00N 58°12' W 134°18'34 8.5 120 / 61016.0 10.8 3.010.0
2017-Jun-20 19:00N 57°42' W 133°48'3115.3 170 / 131014.7 5.4 19.0 10.0
2017-Jun-20 17:00N 57°12' W 134°00'1413.7 130 / 211013.8 5.4 11.0 10.0
2017-Jun-20 16:00N 57°00' W 134°12'2120.5 160 / 51013.6 5.4 12.0 10.0
2017-Jun-20 15:00N 56°42' W 134°30'1212.0 170 / 131013.9 5.4 9.3 12.0
2017-Jun-20 14:00N 56°30' W 134°30'1818.3
2017-Jun-20 13:00N 56°12' W 134°24'1818.0 140 / 131011.9 5.4 9.3 12.0
2017-Jun-20 12:00N 55°54' W 134°24'1212.0 160 / 131011.9 5.4 9.3 12.0
2017-Jun-20 11:00N 55°42' W 134°24'1919.2 180 / 131011.9 5.4 9.3 12.0
2017-Jun-20 10:00N 55°24' W 134°12'1919.3 200 / 181011.8 5.4 9.5 12.0
2017-Jun-20 09:00N 55°06' W 134°00'1818.3 200 / 161011.8 5.4 8.5 12.0
2017-Jun-20 08:00N 54°48' W 133°54'3115.4 180 / 171012.0 5.4 10.1 12.0
2017-Jun-20 06:00N 54°18' W 133°42'1818.3 190 / 171012.2 5.4 13.0 12.0
2017-Jun-20 05:00N 54°00' W 133°36'2120.9 200 / 171012.2 5.4 10.5 12.0
2017-Jun-20 04:00N 53°42' W 133°18'1414.0 210 / 251012.3 5.4 10.5 12.0
2017-Jun-20 03:00N 53°30' W 133°06'1919.4 200 / 211012.6 2.2 12.0 12.0
2017-Jun-20 02:00N 53°12' W 132°54'1616.1 210 / 231013.0 2.2 12.0 18.0
2017-Jun-20 01:00N 53°00' W 132°36'2121.0 230 / 191013.0 2.2 12.0 18.0
2017-Jun-20 00:00N 52°42' W 132°18'1616.2 220 / 191013.0 2.2 12.0 18.0
2017-Jun-19 23:00N 52°30' W 132°00'2828.1 250 / 161013.4 1.1 11.1 9.013.0
2017-Jun-19 22:00N 52°06' W 131°36'1919.0 250 / 161013.4 1.1 11.1 9.013.0
2017-Jun-19 21:00N 51°54' W 131°12'3030.4 180 / 191013.0 1.1 11.1 9.013.0
2017-Jun-19 20:00N 51°30' W 130°42'5919.7 230 / 121012.8 1.1 11.1 13.0
2017-Jun-19 17:00N 50°48' W 129°36'2626.2 180 / 221014.1 1.1 15.0 13.0
2017-Jun-19 16:00N 50°30' W 129°06'1919.4 180 / 281014.6 2.2 15.0 13.0
2017-Jun-19 15:00N 50°18' W 128°42'4321.5 160 / 241015.3 5.4 15.0 13.0
2017-Jun-19 13:00N 49°48' W 127°54'1716.7 170 / 231018.9 5.4 12.1 13.0
2017-Jun-19 12:00N 49°36' W 127°36'1420.2 180 / 231018.9 5.4 12.1 13.0
2017-Jun-19 11:18N 49°27' W 127°20'620.1
2017-Jun-19 10:59N 49°22' W 127°14'1019.9
2017-Jun-19 10:30N 49°17' W 127°02'1019.8
2017-Jun-19 10:00N 49°11' W 126°49'5308.1
2017-Jun-19 10:00N 49°06' W 126°48'815.9 140 / 141018.9 5.4 12.1 13.0
2017-Jun-19 09:30N 49°05' W 126°36'1020.0
2017-Jun-19 09:00N 48°60' W 126°24'7446.4
2017-Jun-19 09:00N 48°54' W 126°18'510.0 120 / 151019.4 5.4 12.4 13.0
2017-Jun-19 08:30N 48°55' W 126°11'1019.9
2017-Jun-19 08:01N 48°50' W 125°57'3170.2
2017-Jun-19 08:00N 48°48' W 125°54'715.0 140 / 171020.2 5.4 12.4 13.0
2017-Jun-19 07:31N 48°44' W 125°45'1020.4
2017-Jun-19 07:01N 48°39' W 125°32'3171.0
2017-Jun-19 07:00N 48°36' W 125°30'816.1 100 / 111020.4 5.4 12.4 13.0
2017-Jun-19 06:31N 48°34' W 125°19'1019.7
2017-Jun-19 06:00N 48°32' W 125°04'3207.3
2017-Jun-19 06:00N 48°30' W 125°00'815.8 100 / 121020.5 5.4 12.5 13.0
2017-Jun-19 05:31N 48°31' W 124°49'1019.1
2017-Jun-19 05:01N 48°28' W 124°35'4247.5
2017-Jun-19 05:00N 48°24' W 124°36'1020.7 090 / 101021.3 5.4 12.5 13.0
2017-Jun-19 04:31N 48°24' W 124°21'1020.0
2017-Jun-19 04:00N 48°20' W 124°07'2159.8
2017-Jun-19 04:00N 48°18' W 124°06'918.5 070 / 51021.3 0.1 12.5 13.0
2017-Jun-19 03:30N 48°17' W 123°52'1020.3
2017-Jun-19 03:00N 48°16' W 123°38'4244.1
2017-Jun-19 03:00N 48°12' W 123°36'816.7 100 / 91021.3 0.1 12.5 13.0
2017-Jun-19 02:31N 48°12' W 123°24'510.5
2017-Jun-19 02:00N 48°10' W 123°17'5302.1
2017-Jun-19 02:00N 48°06' W 123°12'1019.9 020 / 21021.0 12.0 20.0
2017-Jun-19 01:30N 48°13' W 123°01'1121.3
2017-Jun-19 01:00N 48°10' W 122°45'51508.3
2017-Jun-19 01:00N 48°06' W 122°42'511.2 260 / 111021.0 12.0 20.0
2017-Jun-19 00:30N 48°02' W 122°37'1121.2
2017-Jun-19 00:00N 47°53' W 122°28'6345.6
2017-Jun-19 00:00N 47°48' W 122°24'613.2 350 / 211021.0 12.0 20.0
2017-Jun-18 23:31N 47°42' W 122°28'713.9
2017-Jun-18 23:00N 47°37' W 122°21'0 0.3
2017-Jun-18 22:30N 47°37' W 122°21'0 0.0
2017-Jun-18 22:00N 47°37' W 122°21'2159.8
2017-Jun-18 22:00N 47°36' W 122°18'2 4.5 170 / 51021.0 18.9 17.5
2017-Jun-18 21:30N 47°37' W 122°21'0 0.0
2017-Jun-18 21:01N 47°37' W 122°21'2126.3
2017-Jun-18 21:00N 47°36' W 122°18'2 4.5 090 / 41021.0 18.5 16.0
2017-Jun-18 20:30N 47°37' W 122°21'0 0.0
2017-Jun-18 19:57N 47°37' W 122°21'0 0.0
2017-Jun-18 19:25N 47°37' W 122°21'0 0.0
2017-Jun-18 19:00N 47°37' W 122°21'0 0.0
2017-Jun-18 18:30N 47°37' W 122°21'2 4.2
2017-Jun-18 18:00N 47°36' W 122°18'259.3 130 / 81021.0 5.4 18.0 14.0
2017-Jun-18 17:57N 47°37' W 122°21'0 0.0
2017-Jun-18 17:30N 47°37' W 122°21'0 0.0
2017-Jun-18 17:00N 47°37' W 122°21'2163.2
2017-Jun-18 17:00N 47°36' W 122°18'2 4.5 140 / 61021.0 2.2 17.0 10.0
2017-Jun-18 16:30N 47°37' W 122°21'0 0.0
2017-Jun-18 16:00N 47°37' W 122°21'0 0.0
2017-Jun-18 15:30N 47°37' W 122°21'0 0.0
2017-Jun-18 15:00N 47°37' W 122°21'2159.8
2017-Jun-18 15:00N 47°36' W 122°18'2 2.2 150 / 81020.7 5.4 17.0 14.0
2017-Jun-18 14:00N 47°37' W 122°21'2159.8
2017-Jun-18 14:00N 47°36' W 122°18'2 4.5 150 / 51020.7 5.4 17.0 14.0
2017-Jun-18 13:30N 47°37' W 122°21'0 0.0
2017-Jun-18 13:01N 47°37' W 122°21'3 5.4
2017-Jun-18 12:31N 47°37' W 122°25'510.8
2017-Jun-18 12:01N 47°42' W 122°28'7397.4
2017-Jun-18 12:00N 47°36' W 122°24'1225.5 150 / 121020.5 1.1 12.0 9.0
2017-Jun-18 11:31N 47°48' W 122°28'612.9
2017-Jun-18 11:01N 47°54' W 122°30'713.3
2017-Jun-18 10:30N 47°59' W 122°36'713.7
2017-Jun-18 10:00N 48°06' W 122°40'6460.1
2017-Jun-18 10:00N 48°00' W 122°36'1326.2 020 / 11020.6 9.9 11.0
2017-Jun-18 09:29N 48°10' W 122°48'918.7
2017-Jun-18 09:00N 48°12' W 123°02'89786.1
2017-Jun-18 09:00N 48°06' W 122°54'1632.6 080 / 71020.5 10.1 11.0
2017-Jun-18 08:30N 48°11' W 123°16'713.4
2017-Jun-18 08:00N 48°10' W 123°26'7432.9
2017-Jun-18 08:00N 48°06' W 123°18'1429.3 110 / 31020.3 10.3 11.0
2017-Jun-18 07:30N 48°19' W 123°27'611.6
2017-Jun-18 07:01N 48°24' W 123°24'1 2.1
2017-Jun-18 06:28N 48°25' W 123°23'0 0.0
2017-Jun-18 05:58N 48°25' W 123°23'0 0.0
2017-Jun-18 05:28N 48°25' W 123°23'4 7.9
2017-Jun-18 05:00N 48°24' W 123°18'444.7 230 / 131020.0 2.2 14.0 10.0
2017-Jun-18 04:55N 48°25' W 123°23'0 0.0
2017-Jun-18 04:28N 48°25' W 123°23'4 7.9
2017-Jun-18 04:00N 48°24' W 123°18'4113.5 200 / 51020.0 2.2 12.0 10.0
2017-Jun-18 03:58N 48°25' W 123°23'0 0.0
2017-Jun-18 03:19N 48°25' W 123°23'0 0.0
2017-Jun-18 02:58N 48°25' W 123°23'0 0.0
2017-Jun-18 02:28N 48°25' W 123°23'4 7.9
2017-Jun-18 02:00N 48°24' W 123°18'4112.6 240 / 211020.7 5.4 13.5 12.0
2017-Jun-18 01:58N 48°25' W 123°23'0 0.0
2017-Jun-18 01:25N 48°25' W 123°23'4 8.7
2017-Jun-18 01:00N 48°24' W 123°18'4113.5 240 / 181021.0 5.4 16.0 12.0
2017-Jun-18 00:58N 48°25' W 123°23'0 0.1
2017-Jun-18 00:30N 48°25' W 123°23'3 5.9
2017-Jun-18 00:00N 48°22' W 123°25'713.9
2017-Jun-17 23:31N 48°15' W 123°27'918.0
2017-Jun-17 23:00N 48°14' W 123°40'3194.1
2017-Jun-17 23:00N 48°12' W 123°36'1326.9 240 / 81021.5 5.4 11.2 13.0
2017-Jun-17 22:31N 48°14' W 123°55'1121.0
2017-Jun-17 22:01N 48°18' W 124°10'7387.3
2017-Jun-17 22:00N 48°12' W 124°06'1735.5 260 / 81021.5 5.4 11.2 13.0
2017-Jun-17 21:31N 48°23' W 124°26'1223.5
2017-Jun-17 21:01N 48°28' W 124°42'5323.6
2017-Jun-17 21:00N 48°24' W 124°36'1633.0 360 / 71021.9 5.4 11.7 13.0
2017-Jun-17 20:30N 48°28' W 124°60'1122.4
2017-Jun-17 20:01N 48°31' W 125°15'3157.3
2017-Jun-17 20:00N 48°30' W 125°12'1429.5 080 / 111021.8 5.4 11.3 13.0
2017-Jun-17 19:31N 48°38' W 125°30'1122.9
2017-Jun-17 19:01N 48°44' W 125°45'1122.6
2017-Jun-17 18:31N 48°49' W 125°60'1122.5
2017-Jun-17 18:00N 48°56' W 126°14'9584.7
2017-Jun-17 18:00N 48°48' W 126°06'2142.5 160 / 121021.3 5.4 13.0 13.0
2017-Jun-17 17:30N 49°03' W 126°28'1223.4
2017-Jun-17 17:00N 49°10' W 126°41'4220.9
2017-Jun-17 15:00N 49°42' W 127°24'2423.7 180 / 51020.8 5.4 10.8 13.0
2017-Jun-17 14:00N 50°00' W 127°48'2121.4 200 / 81020.810.8 10.4 13.0
2017-Jun-17 13:00N 50°18' W 128°06'1628.4 080 / 81020.810.8 10.4 13.0
2017-Jun-17 12:25N 50°30' W 128°23'922.8
2017-Jun-17 12:00N 50°39' W 128°27'1223.5
2017-Jun-17 11:31N 50°50' W 128°31'1223.2
2017-Jun-17 11:01N 51°01' W 128°38'1223.6
2017-Jun-17 10:30N 51°12' W 128°47'1223.3
2017-Jun-17 10:01N 51°22' W 128°55'6360.0
2017-Jun-17 10:00N 51°18' W 128°48'1735.3 090 / 81020.810.8 10.4 13.0
2017-Jun-17 09:30N 51°32' W 129°04'1122.5
2017-Jun-17 09:00N 51°42' W 129°13'6356.6
2017-Jun-17 09:00N 51°36' W 129°12'1735.2 100 / 71020.810.8 10.6 13.0
2017-Jun-17 08:30N 51°52' W 129°22'2 4.8
2017-Jun-17 08:00N 51°54' W 129°24'11274.3 180 / 41021.110.8 10.5 13.0
2017-Jun-17 07:57N 52°03' W 129°32'6321.4
2017-Jun-17 05:00N 53°00' W 130°18'2121.0 140 / 91019.910.8 13.0 13.0
2017-Jun-17 04:00N 53°18' W 130°36'2525.0 180 / 121019.410.8 13.0 13.0
2017-Jun-17 03:00N 53°42' W 130°48'2525.0 210 / 41019.410.8 10.9 13.0
2017-Jun-17 02:00N 54°06' W 131°00'1919.3 310 / 71019.410.8 10.9 13.0
2017-Jun-17 01:00N 54°24' W 131°12'4221.0 260 / 131017.410.8 10.9 13.0
2017-Jun-16 23:00N 55°06' W 131°12'18 4.6 200 / 231017.410.8 10.9 13.0
2017-Jun-16 19:00N 55°18' W 131°36'120120.0 140 / 71015.010.8 10.0 10.0
2017-Jun-16 18:00N 53°18' W 131°36'120120.0 180 / 101013.010.8 10.0 10.0
2017-Jun-16 17:00N 55°18' W 131°36'0 0.0 210 / 81013.0 5.4 9.0 10.0
2017-Jun-16 16:00N 55°18' W 131°36'0 0.0 180 / 81012.4 5.4 9.5 11.0
2017-Jun-16 15:00N 55°18' W 131°36'3 1.7 120 / 51011.3 5.4 9.5 11.0
2017-Jun-16 13:00N 55°18' W 131°42'2713.6 170 / 91009.2 5.4 8.4 11.0
2017-Jun-16 11:00N 55°36' W 132°18'2120.7 210 / 61006.4 5.4 8.4 11.0
2017-Jun-16 10:00N 55°54' W 132°36'1413.7 030 / 31004.1 5.4 8.9 10.0
2017-Jun-16 09:00N 56°06' W 132°48'3216.2 230 / 81004.1 5.4 8.3 10.0
2017-Jun-16 07:00N 56°18' W 133°42'2120.6 180 / 121002.0 5.4 10.0 10.0
2017-Jun-16 06:00N 56°00' W 134°00'1615.6 230 / 61000.1 5.4 10.0 10.0
2017-Jun-16 05:00N 56°12' W 134°18'2524.9 210 / 31000.4 5.4 10.0 10.0
2017-Jun-16 04:00N 56°36' W 134°30'2424.2 030 / 6999.6 5.4 10.0 10.0
2017-Jun-16 03:00N 57°00' W 134°36'2424.2 070 / 6999.6 5.4 9.5 8.0
2017-Jun-16 02:00N 57°24' W 134°42'2424.2 150 / 6999.6 5.4 9.5 8.0
2017-Jun-16 01:00N 57°48' W 134°48'4321.8 030 / 6999.6 5.4 9.5 8.0
2017-Jun-15 23:01N 58°18' W 135°47'021.8
2017-Jun-15 23:00N 58°18' W 135°47'31265.1
2017-Jun-15 23:00N 58°18' W 135°42'1123.0 150 / 11000.6 5.4 9.5 8.0
2017-Jun-15 22:30N 58°25' W 135°59'612.8
2017-Jun-15 22:00N 58°31' W 136°04'7467.6
2017-Jun-15 22:00N 58°24' W 136°00'1834.7 030 / 81000.9 5.4 10.0 6.0
2017-Jun-15 21:29N 58°42' W 136°06'612.5
2017-Jun-15 21:00N 58°42' W 136°18'2211.1 280 / 41003.3 5.4 6.0 6.0
2017-Jun-15 19:00N 58°54' W 136°54'11 3.7 350 / 41003.3 5.4 6.0 6.0
2017-Jun-15 16:00N 58°48' W 136°36'1413.8 280 / 111004.7 5.4 7.5 11.0
2017-Jun-15 15:00N 58°42' W 136°12'526.1 310 / 121005.1 5.4 7.5 11.0
2017-Jun-15 14:47N 58°37' W 136°06'416.2
2017-Jun-15 14:30N 58°33' W 136°04'1312.8
2017-Jun-15 13:30N 58°21' W 135°56'510.3
2017-Jun-15 13:00N 58°18' W 135°48'121.8 140 / 81009.0 11.0 16.0
2017-Jun-15 12:58N 58°18' W 135°47'46 6.5
2017-Jun-15 06:00N 59°00' W 135°12'24 8.1 210 / 51006.0 5.4 11.0 11.0
2017-Jun-15 03:00N 59°24' W 135°18'0 0.0 200 / 131006.4 5.4 17.0 11.0
2017-Jun-15 02:00N 59°24' W 135°18'0 0.0 180 / 11006.4 5.4 17.0 11.0
2017-Jun-15 01:00N 59°24' W 135°18'0 0.0 180 / 21007.0 5.4 17.0 11.0
2017-Jun-14 23:00N 59°24' W 135°18'0 0.0 190 / 91008.0 14.9 13.0
2017-Jun-14 22:00N 59°24' W 135°18'0 0.0 180 / 91008.0 13.0 12.0
2017-Jun-14 21:00N 59°24' W 135°18'0 0.0 180 / 91008.0 14.3
2017-Jun-14 19:00N 59°24' W 135°18'0 0.0 150 / 41008.010.8 14.0 11.0
2017-Jun-14 18:00N 59°24' W 135°18'0 0.0 150 / 41009.010.8 14.0 11.0
2017-Jun-14 17:00N 59°24' W 135°18'0 0.0 250 / 21010.010.8 11.0 10.0
2017-Jun-14 14:00N 59°24' W 135°18'18 9.1 010 / 111013.2 5.4 8.6 11.0
2017-Jun-14 12:00N 59°06' W 135°12'1818.3 330 / 91013.2 5.4 8.6 11.0
2017-Jun-14 11:00N 58°48' W 135°06'1212.4 330 / 91013.2 5.4 8.6 11.0
2017-Jun-14 10:00N 58°36' W 135°00'1413.5 300 / 31013.5 5.4 7.9 11.0
2017-Jun-14 09:00N 58°24' W 134°48'2211.0 270 / 71013.8 5.4 9.0 11.0
2017-Jun-14 07:00N 58°06' W 134°24'7 6.8 080 / 61014.0 5.4 12.0 10.0
2017-Jun-14 06:00N 58°12' W 134°18'0 0.0 280 / 31014.010.8 9.0 10.0
2017-Jun-14 05:00N 58°12' W 134°18'0 0.0 170 / 31014.010.8 10.0 10.0
2017-Jun-14 04:00N 58°12' W 134°18'3 3.2 110 / 91014.0 5.4 10.0 10.0
2017-Jun-14 03:00N 58°12' W 134°24'0 0.0 110 / 91014.9 5.4 10.5 10.0
2017-Jun-14 02:00N 58°12' W 134°24'0 0.0 110 / 81015.0 5.4 11.0 10.0
2017-Jun-14 01:00N 58°12' W 134°24'3 1.6 110 / 81015.3 5.4 10.0 10.0
2017-Jun-13 23:00N 58°12' W 134°18'34 8.5 120 / 121015.0 5.4 9.0 10.0
2017-Jun-13 19:00N 57°42' W 133°48'1212.4 120 / 101016.4 2.2 10.0 10.0
2017-Jun-13 18:00N 57°30' W 133°42'2020.5 150 / 151016.4 2.2 10.0 10.0
2017-Jun-13 17:00N 57°12' W 134°00'1515.5 120 / 161015.9 2.2 10.0 10.0
2017-Jun-13 16:00N 57°00' W 134°18'1818.3 130 / 201015.4 5.4 7.5 12.0
2017-Jun-13 15:00N 56°42' W 134°24'1818.0 120 / 171015.9 5.4 8.6 12.0
2017-Jun-13 14:00N 56°24' W 134°24'1818.0 140 / 101015.9 5.4 8.6 12.0
2017-Jun-13 13:00N 56°06' W 134°24'1818.0 140 / 101015.9 5.4 8.6 12.0
2017-Jun-13 12:00N 55°48' W 134°24'2524.9 150 / 131015.9 5.4 8.6 12.0
2017-Jun-13 11:00N 55°24' W 134°12'2512.5 180 / 141016.3 5.4 7.8 12.0
2017-Jun-13 09:00N 55°00' W 134°00'1818.3 190 / 91016.9 5.4 7.8 12.0
2017-Jun-13 08:00N 54°42' W 133°54'2525.0 220 / 211017.2 5.4 8.6 12.0
2017-Jun-13 07:00N 54°18' W 133°42'1919.3 230 / 191017.7 5.4 12.0 12.0
2017-Jun-13 06:00N 54°00' W 133°30'3316.6 240 / 191018.1 5.4 12.0 12.0
2017-Jun-13 04:00N 53°30' W 133°06'2626.3 230 / 141018.6 5.4 12.0 12.0
2017-Jun-13 03:00N 53°06' W 132°48'2121.0 260 / 101019.1 5.4 12.0 12.0
2017-Jun-13 02:00N 52°48' W 132°30'1918.9 250 / 131019.4 5.4 9.9 12.0
2017-Jun-13 01:00N 52°36' W 132°06'2121.1 280 / 161019.4 5.4 9.9 12.0
2017-Jun-13 00:00N 52°18' W 131°48'1616.3 280 / 161019.4 5.4 9.9 12.0
2017-Jun-12 23:00N 52°06' W 131°30'2121.1 290 / 141019.4 5.4 9.9 12.0
2017-Jun-12 22:00N 51°48' W 131°12'1616.4 290 / 181019.4 5.4 9.9 12.0
2017-Jun-12 21:00N 51°36' W 130°54'16501650.1 290 / 151019.0 10.2 13.0
2017-Jun-12 20:00N 24°06' W 130°30'16201620.1 360 / 131019.0 9.9 13.0
2017-Jun-12 19:00N 51°06' W 130°06'7919.6 300 / 131019.010.8 9.9 13.0
2017-Jun-12 15:00N 50°12' W 128°36'   340 / 141018.9 5.4 11.5 12.0
Track history (hours):
 
Tides and Currents Weather Stations Pressure Air Temp Water Temp Dewpoint Dewpoint Depression Visibility Wind Speed Wind Dir Waves Ship Positions

Norwegian Pearl

Last reported at 2017-Jun-22 15:00 UTC. Time now 2017-Jun-22 16:38 UTC.
Position N 58°42' W 136°12'.

Type: Ship. MMSI: 309653000.

Wind from 260 at 6 knots

Barometer 1030.8 mb
Air temperature 9.5 ° C
Visibility: greater than 5.4 NM
Water temperature 10.0 ° C

Date/timePositionNaut miles runAvg speedWind from/ knotsBaromVisibWave heightAir tempDewpointWater temp
2017-Jun-22 15:00N 58°42' W 136°12'2914.3 260 / 61030.8 5.4 9.5 10.0
2017-Jun-22 13:00N 58°18' W 135°42'1111.2 140 / 91029.0 9.9 4.010.0
2017-Jun-22 12:00N 58°12' W 135°24'1111.2 140 / 91029.0 9.9 4.010.0
2017-Jun-22 11:00N 58°06' W 135°06'7 6.8 090 / 91029.0 9.9 4.010.0
2017-Jun-22 10:00N 58°12' W 135°00'1818.0 230 / 71029.0 10.2 13.0
2017-Jun-22 09:00N 58°30' W 135°00'1818.3 120 / 191028.4 10.4 13.0
2017-Jun-22 08:00N 58°48' W 135°06'37 7.3 140 / 191027.0 2.2 12.0 11.0
2017-Jun-22 03:00N 59°24' W 135°18'0 0.0 190 / 201025.0 5.4 17.0 13.0
2017-Jun-22 02:00N 59°24' W 135°18'0 0.0 200 / 201025.0 5.4 17.0 13.0
2017-Jun-22 01:00N 59°24' W 135°18'0 0.0 200 / 201024.5 5.4 16.0 13.0
2017-Jun-22 00:00N 59°24' W 135°18'0 0.0 200 / 181024.2 5.4 15.5 13.0
2017-Jun-21 23:00N 59°24' W 135°18'0 0.0 190 / 91023.0 15.313.013.0
2017-Jun-21 22:00N 59°24' W 135°18'0 0.0 180 / 91023.0 15.313.013.0
2017-Jun-21 21:00N 59°24' W 135°18'0 0.0 180 / 91023.0 15.913.013.0
2017-Jun-21 19:00N 59°24' W 135°18'0 0.0 200 / 211022.0 2.2 14.0 10.0
2017-Jun-21 18:00N 59°24' W 135°18'0 0.0 200 / 211012.0 2.2 12.0 12.0
2017-Jun-21 17:00N 59°24' W 135°18'0 0.0 200 / 201012.0 2.2 13.0 10.0
2017-Jun-21 15:00N 59°24' W 135°18'18 6.0 180 / 151020.6 5.4 15.0 11.0
2017-Jun-21 12:00N 59°06' W 135°18'1313.5 150 / 91019.0 9.9 11.0
2017-Jun-21 11:00N 58°54' W 135°06'1818.3 160 / 121019.0 9.9 11.0
2017-Jun-21 10:00N 58°36' W 135°00'1413.5 150 / 51018.3 10.1 11.0
2017-Jun-21 09:00N 58°24' W 134°48'20 5.0 160 / 111018.3 10.1 11.0
2017-Jun-21 05:00N 58°12' W 134°18'3 1.6 100 / 91017.2 5.4 10.0 11.0
2017-Jun-21 03:00N 58°12' W 134°24'0 0.0 110 / 111016.8 0.1 11.0
2017-Jun-21 02:00N 58°12' W 134°24'0 0.0 120 / 201016.5 5.4 11.7 10.0
2017-Jun-21 01:00N 58°12' W 134°24'3 3.2 100 / 231016.5 5.4 11.5 10.0
2017-Jun-21 00:00N 58°12' W 134°18'0 0.0 160 / 61016.0 11.8 3.010.0
2017-Jun-20 23:00N 58°12' W 134°18'34 8.5 120 / 61016.0 10.8 3.010.0
2017-Jun-20 19:00N 57°42' W 133°48'3115.3 170 / 131014.7 5.4 19.0 10.0
2017-Jun-20 17:00N 57°12' W 134°00'1413.7 130 / 211013.8 5.4 11.0 10.0
2017-Jun-20 16:00N 57°00' W 134°12'2120.5 160 / 51013.6 5.4 12.0 10.0
2017-Jun-20 15:00N 56°42' W 134°30'1212.0 170 / 131013.9 5.4 9.3 12.0
2017-Jun-20 14:00N 56°30' W 134°30'1818.3
2017-Jun-20 13:00N 56°12' W 134°24'1818.0 140 / 131011.9 5.4 9.3 12.0
2017-Jun-20 12:00N 55°54' W 134°24'1212.0 160 / 131011.9 5.4 9.3 12.0
2017-Jun-20 11:00N 55°42' W 134°24'1919.2 180 / 131011.9 5.4 9.3 12.0
2017-Jun-20 10:00N 55°24' W 134°12'1919.3 200 / 181011.8 5.4 9.5 12.0
2017-Jun-20 09:00N 55°06' W 134°00'1818.3 200 / 161011.8 5.4 8.5 12.0
2017-Jun-20 08:00N 54°48' W 133°54'3115.4 180 / 171012.0 5.4 10.1 12.0
2017-Jun-20 06:00N 54°18' W 133°42'1818.3 190 / 171012.2 5.4 13.0 12.0
2017-Jun-20 05:00N 54°00' W 133°36'2120.9 200 / 171012.2 5.4 10.5 12.0
2017-Jun-20 04:00N 53°42' W 133°18'1414.0 210 / 251012.3 5.4 10.5 12.0
2017-Jun-20 03:00N 53°30' W 133°06'1919.4 200 / 211012.6 2.2 12.0 12.0
2017-Jun-20 02:00N 53°12' W 132°54'1616.1 210 / 231013.0 2.2 12.0 18.0
2017-Jun-20 01:00N 53°00' W 132°36'2121.0 230 / 191013.0 2.2 12.0 18.0
2017-Jun-20 00:00N 52°42' W 132°18'1616.2 220 / 191013.0 2.2 12.0 18.0
2017-Jun-19 23:00N 52°30' W 132°00'2828.1 250 / 161013.4 1.1 11.1 9.013.0
2017-Jun-19 22:00N 52°06' W 131°36'1919.0 250 / 161013.4 1.1 11.1 9.013.0
2017-Jun-19 21:00N 51°54' W 131°12'3030.4 180 / 191013.0 1.1 11.1 9.013.0
2017-Jun-19 20:00N 51°30' W 130°42'5919.7 230 / 121012.8 1.1 11.1 13.0
2017-Jun-19 17:00N 50°48' W 129°36'2626.2 180 / 221014.1 1.1 15.0 13.0
2017-Jun-19 16:00N 50°30' W 129°06'1919.4 180 / 281014.6 2.2 15.0 13.0
2017-Jun-19 15:00N 50°18' W 128°42'4321.5 160 / 241015.3 5.4 15.0 13.0
2017-Jun-19 13:00N 49°48' W 127°54'1716.7 170 / 231018.9 5.4 12.1 13.0
2017-Jun-19 12:00N 49°36' W 127°36'1420.2 180 / 231018.9 5.4 12.1 13.0
2017-Jun-19 11:18N 49°27' W 127°20'620.1
2017-Jun-19 10:59N 49°22' W 127°14'1019.9
2017-Jun-19 10:30N 49°17' W 127°02'1019.8
2017-Jun-19 10:00N 49°11' W 126°49'5308.1
2017-Jun-19 10:00N 49°06' W 126°48'815.9 140 / 141018.9 5.4 12.1 13.0
2017-Jun-19 09:30N 49°05' W 126°36'1020.0
2017-Jun-19 09:00N 48°60' W 126°24'7446.4
2017-Jun-19 09:00N 48°54' W 126°18'510.0 120 / 151019.4 5.4 12.4 13.0
2017-Jun-19 08:30N 48°55' W 126°11'1019.9
2017-Jun-19 08:01N 48°50' W 125°57'3170.2
2017-Jun-19 08:00N 48°48' W 125°54'715.0 140 / 171020.2 5.4 12.4 13.0
2017-Jun-19 07:31N 48°44' W 125°45'1020.4
2017-Jun-19 07:01N 48°39' W 125°32'3171.0
2017-Jun-19 07:00N 48°36' W 125°30'816.1 100 / 111020.4 5.4 12.4 13.0
2017-Jun-19 06:31N 48°34' W 125°19'1019.7
2017-Jun-19 06:00N 48°32' W 125°04'3207.3
2017-Jun-19 06:00N 48°30' W 125°00'815.8 100 / 121020.5 5.4 12.5 13.0
2017-Jun-19 05:31N 48°31' W 124°49'1019.1
2017-Jun-19 05:01N 48°28' W 124°35'4247.5
2017-Jun-19 05:00N 48°24' W 124°36'1020.7 090 / 101021.3 5.4 12.5 13.0
2017-Jun-19 04:31N 48°24' W 124°21'1020.0
2017-Jun-19 04:00N 48°20' W 124°07'2159.8
2017-Jun-19 04:00N 48°18' W 124°06'918.5 070 / 51021.3 0.1 12.5 13.0
2017-Jun-19 03:30N 48°17' W 123°52'1020.3
2017-Jun-19 03:00N 48°16' W 123°38'4244.1
2017-Jun-19 03:00N 48°12' W 123°36'816.7 100 / 91021.3 0.1 12.5 13.0
2017-Jun-19 02:31N 48°12' W 123°24'510.5
2017-Jun-19 02:00N 48°10' W 123°17'5302.1
2017-Jun-19 02:00N 48°06' W 123°12'1019.9 020 / 21021.0 12.0 20.0
2017-Jun-19 01:30N 48°13' W 123°01'1121.3
2017-Jun-19 01:00N 48°10' W 122°45'51508.3
2017-Jun-19 01:00N 48°06' W 122°42'511.2 260 / 111021.0 12.0 20.0
2017-Jun-19 00:30N 48°02' W 122°37'1121.2
2017-Jun-19 00:00N 47°53' W 122°28'6345.6
2017-Jun-19 00:00N 47°48' W 122°24'613.2 350 / 211021.0 12.0 20.0
2017-Jun-18 23:31N 47°42' W 122°28'713.9
2017-Jun-18 23:00N 47°37' W 122°21'0 0.3
2017-Jun-18 22:30N 47°37' W 122°21'0 0.0
2017-Jun-18 22:00N 47°37' W 122°21'2159.8
2017-Jun-18 22:00N 47°36' W 122°18'2 4.5 170 / 51021.0 18.9 17.5
2017-Jun-18 21:30N 47°37' W 122°21'0 0.0
2017-Jun-18 21:01N 47°37' W 122°21'2126.3
2017-Jun-18 21:00N 47°36' W 122°18'2 4.5 090 / 41021.0 18.5 16.0
2017-Jun-18 20:30N 47°37' W 122°21'0 0.0
2017-Jun-18 19:57N 47°37' W 122°21'0 0.0
2017-Jun-18 19:25N 47°37' W 122°21'0 0.0
2017-Jun-18 19:00N 47°37' W 122°21'0 0.0
2017-Jun-18 18:30N 47°37' W 122°21'2 4.2
2017-Jun-18 18:00N 47°36' W 122°18'259.3 130 / 81021.0 5.4 18.0 14.0
2017-Jun-18 17:57N 47°37' W 122°21'0 0.0
2017-Jun-18 17:30N 47°37' W 122°21'0 0.0
2017-Jun-18 17:00N 47°37' W 122°21'2163.2
2017-Jun-18 17:00N 47°36' W 122°18'2 4.5 140 / 61021.0 2.2 17.0 10.0
2017-Jun-18 16:30N 47°37' W 122°21'0 0.0
2017-Jun-18 16:00N 47°37' W 122°21'0 0.0
2017-Jun-18 15:30N 47°37' W 122°21'0 0.0
2017-Jun-18 15:00N 47°37' W 122°21'2159.8
2017-Jun-18 15:00N 47°36' W 122°18'2 2.2 150 / 81020.7 5.4 17.0 14.0
2017-Jun-18 14:00N 47°37' W 122°21'2159.8
2017-Jun-18 14:00N 47°36' W 122°18'2 4.5 150 / 51020.7 5.4 17.0 14.0
2017-Jun-18 13:30N 47°37' W 122°21'0 0.0
2017-Jun-18 13:01N 47°37' W 122°21'3 5.4
2017-Jun-18 12:31N 47°37' W 122°25'510.8
2017-Jun-18 12:01N 47°42' W 122°28'7397.4
2017-Jun-18 12:00N 47°36' W 122°24'1225.5 150 / 121020.5 1.1 12.0 9.0
2017-Jun-18 11:31N 47°48' W 122°28'612.9
2017-Jun-18 11:01N 47°54' W 122°30'713.3
2017-Jun-18 10:30N 47°59' W 122°36'713.7
2017-Jun-18 10:00N 48°06' W 122°40'6460.1
2017-Jun-18 10:00N 48°00' W 122°36'1326.2 020 / 11020.6 9.9 11.0
2017-Jun-18 09:29N 48°10' W 122°48'918.7
2017-Jun-18 09:00N 48°12' W 123°02'89786.1
2017-Jun-18 09:00N 48°06' W 122°54'1632.6 080 / 71020.5 10.1 11.0
2017-Jun-18 08:30N 48°11' W 123°16'713.4
2017-Jun-18 08:00N 48°10' W 123°26'7432.9
2017-Jun-18 08:00N 48°06' W 123°18'1429.3 110 / 31020.3 10.3 11.0
2017-Jun-18 07:30N 48°19' W 123°27'611.6
2017-Jun-18 07:01N 48°24' W 123°24'1 2.1
2017-Jun-18 06:28N 48°25' W 123°23'0 0.0
2017-Jun-18 05:58N 48°25' W 123°23'0 0.0
2017-Jun-18 05:28N 48°25' W 123°23'4 7.9
2017-Jun-18 05:00N 48°24' W 123°18'444.7 230 / 131020.0 2.2 14.0 10.0
2017-Jun-18 04:55N 48°25' W 123°23'0 0.0
2017-Jun-18 04:28N 48°25' W 123°23'4 7.9
2017-Jun-18 04:00N 48°24' W 123°18'4113.5 200 / 51020.0 2.2 12.0 10.0
2017-Jun-18 03:58N 48°25' W 123°23'0 0.0
2017-Jun-18 03:19N 48°25' W 123°23'0 0.0
2017-Jun-18 02:58N 48°25' W 123°23'0 0.0
2017-Jun-18 02:28N 48°25' W 123°23'4 7.9
2017-Jun-18 02:00N 48°24' W 123°18'4112.6 240 / 211020.7 5.4 13.5 12.0
2017-Jun-18 01:58N 48°25' W 123°23'0 0.0
2017-Jun-18 01:25N 48°25' W 123°23'4 8.7
2017-Jun-18 01:00N 48°24' W 123°18'4113.5 240 / 181021.0 5.4 16.0 12.0
2017-Jun-18 00:58N 48°25' W 123°23'0 0.1
2017-Jun-18 00:30N 48°25' W 123°23'3 5.9
2017-Jun-18 00:00N 48°22' W 123°25'713.9
2017-Jun-17 23:31N 48°15' W 123°27'918.0
2017-Jun-17 23:00N 48°14' W 123°40'3194.1
2017-Jun-17 23:00N 48°12' W 123°36'1326.9 240 / 81021.5 5.4 11.2 13.0
2017-Jun-17 22:31N 48°14' W 123°55'1121.0
2017-Jun-17 22:01N 48°18' W 124°10'7387.3
2017-Jun-17 22:00N 48°12' W 124°06'1735.5 260 / 81021.5 5.4 11.2 13.0
2017-Jun-17 21:31N 48°23' W 124°26'1223.5
2017-Jun-17 21:01N 48°28' W 124°42'5323.6
2017-Jun-17 21:00N 48°24' W 124°36'1633.0 360 / 71021.9 5.4 11.7 13.0
2017-Jun-17 20:30N 48°28' W 124°60'1122.4
2017-Jun-17 20:01N 48°31' W 125°15'3157.3
2017-Jun-17 20:00N 48°30' W 125°12'1429.5 080 / 111021.8 5.4 11.3 13.0
2017-Jun-17 19:31N 48°38' W 125°30'1122.9
2017-Jun-17 19:01N 48°44' W 125°45'1122.6
2017-Jun-17 18:31N 48°49' W 125°60'1122.5
2017-Jun-17 18:00N 48°56' W 126°14'9584.7
2017-Jun-17 18:00N 48°48' W 126°06'2142.5 160 / 121021.3 5.4 13.0 13.0
2017-Jun-17 17:30N 49°03' W 126°28'1223.4
2017-Jun-17 17:00N 49°10' W 126°41'4220.9
2017-Jun-17 15:00N 49°42' W 127°24'2423.7 180 / 51020.8 5.4 10.8 13.0
2017-Jun-17 14:00N 50°00' W 127°48'2121.4 200 / 81020.810.8 10.4 13.0
2017-Jun-17 13:00N 50°18' W 128°06'1628.4 080 / 81020.810.8 10.4 13.0
2017-Jun-17 12:25N 50°30' W 128°23'922.8
2017-Jun-17 12:00N 50°39' W 128°27'1223.5
2017-Jun-17 11:31N 50°50' W 128°31'1223.2
2017-Jun-17 11:01N 51°01' W 128°38'1223.6
2017-Jun-17 10:30N 51°12' W 128°47'1223.3
2017-Jun-17 10:01N 51°22' W 128°55'6360.0
2017-Jun-17 10:00N 51°18' W 128°48'1735.3 090 / 81020.810.8 10.4 13.0
2017-Jun-17 09:30N 51°32' W 129°04'1122.5
2017-Jun-17 09:00N 51°42' W 129°13'6356.6
2017-Jun-17 09:00N 51°36' W 129°12'1735.2 100 / 71020.810.8 10.6 13.0
2017-Jun-17 08:30N 51°52' W 129°22'2 4.8
2017-Jun-17 08:00N 51°54' W 129°24'11274.3 180 / 41021.110.8 10.5 13.0
2017-Jun-17 07:57N 52°03' W 129°32'6321.4
2017-Jun-17 05:00N 53°00' W 130°18'2121.0 140 / 91019.910.8 13.0 13.0
2017-Jun-17 04:00N 53°18' W 130°36'2525.0 180 / 121019.410.8 13.0 13.0
2017-Jun-17 03:00N 53°42' W 130°48'2525.0 210 / 41019.410.8 10.9 13.0
2017-Jun-17 02:00N 54°06' W 131°00'1919.3 310 / 71019.410.8 10.9 13.0
2017-Jun-17 01:00N 54°24' W 131°12'4221.0 260 / 131017.410.8 10.9 13.0
2017-Jun-16 23:00N 55°06' W 131°12'18 4.6 200 / 231017.410.8 10.9 13.0
2017-Jun-16 19:00N 55°18' W 131°36'120120.0 140 / 71015.010.8 10.0 10.0
2017-Jun-16 18:00N 53°18' W 131°36'120120.0 180 / 101013.010.8 10.0 10.0
2017-Jun-16 17:00N 55°18' W 131°36'0 0.0 210 / 81013.0 5.4 9.0 10.0
2017-Jun-16 16:00N 55°18' W 131°36'0 0.0 180 / 81012.4 5.4 9.5 11.0
2017-Jun-16 15:00N 55°18' W 131°36'3 1.7 120 / 51011.3 5.4 9.5 11.0
2017-Jun-16 13:00N 55°18' W 131°42'2713.6 170 / 91009.2 5.4 8.4 11.0
2017-Jun-16 11:00N 55°36' W 132°18'2120.7 210 / 61006.4 5.4 8.4 11.0
2017-Jun-16 10:00N 55°54' W 132°36'1413.7 030 / 31004.1 5.4 8.9 10.0
2017-Jun-16 09:00N 56°06' W 132°48'3216.2 230 / 81004.1 5.4 8.3 10.0
2017-Jun-16 07:00N 56°18' W 133°42'2120.6 180 / 121002.0 5.4 10.0 10.0
2017-Jun-16 06:00N 56°00' W 134°00'1615.6 230 / 61000.1 5.4 10.0 10.0
2017-Jun-16 05:00N 56°12' W 134°18'2524.9 210 / 31000.4 5.4 10.0 10.0
2017-Jun-16 04:00N 56°36' W 134°30'2424.2 030 / 6999.6 5.4 10.0 10.0
2017-Jun-16 03:00N 57°00' W 134°36'2424.2 070 / 6999.6 5.4 9.5 8.0
2017-Jun-16 02:00N 57°24' W 134°42'2424.2 150 / 6999.6 5.4 9.5 8.0
2017-Jun-16 01:00N 57°48' W 134°48'4321.8 030 / 6999.6 5.4 9.5 8.0
2017-Jun-15 23:01N 58°18' W 135°47'021.8
2017-Jun-15 23:00N 58°18' W 135°47'31265.1
2017-Jun-15 23:00N 58°18' W 135°42'1123.0 150 / 11000.6 5.4 9.5 8.0
2017-Jun-15 22:30N 58°25' W 135°59'612.8
2017-Jun-15 22:00N 58°31' W 136°04'7467.6
2017-Jun-15 22:00N 58°24' W 136°00'1834.7 030 / 81000.9 5.4 10.0 6.0
2017-Jun-15 21:29N 58°42' W 136°06'612.5
2017-Jun-15 21:00N 58°42' W 136°18'2211.1 280 / 41003.3 5.4 6.0 6.0
2017-Jun-15 19:00N 58°54' W 136°54'11 3.7 350 / 41003.3 5.4 6.0 6.0
2017-Jun-15 16:00N 58°48' W 136°36'1413.8 280 / 111004.7 5.4 7.5 11.0
2017-Jun-15 15:00N 58°42' W 136°12'526.1 310 / 121005.1 5.4 7.5 11.0
2017-Jun-15 14:47N 58°37' W 136°06'416.2
2017-Jun-15 14:30N 58°33' W 136°04'1312.8
2017-Jun-15 13:30N 58°21' W 135°56'510.3
2017-Jun-15 13:00N 58°18' W 135°48'121.8 140 / 81009.0 11.0 16.0
2017-Jun-15 12:58N 58°18' W 135°47'46 6.5
2017-Jun-15 06:00N 59°00' W 135°12'24 8.1 210 / 51006.0 5.4 11.0 11.0
2017-Jun-15 03:00N 59°24' W 135°18'0 0.0 200 / 131006.4 5.4 17.0 11.0
2017-Jun-15 02:00N 59°24' W 135°18'0 0.0 180 / 11006.4 5.4 17.0 11.0
2017-Jun-15 01:00N 59°24' W 135°18'0 0.0 180 / 21007.0 5.4 17.0 11.0
2017-Jun-14 23:00N 59°24' W 135°18'0 0.0 190 / 91008.0 14.9 13.0
2017-Jun-14 22:00N 59°24' W 135°18'0 0.0 180 / 91008.0 13.0 12.0
2017-Jun-14 21:00N 59°24' W 135°18'0 0.0 180 / 91008.0 14.3
2017-Jun-14 19:00N 59°24' W 135°18'0 0.0 150 / 41008.010.8 14.0 11.0
2017-Jun-14 18:00N 59°24' W 135°18'0 0.0 150 / 41009.010.8 14.0 11.0
2017-Jun-14 17:00N 59°24' W 135°18'0 0.0 250 / 21010.010.8 11.0 10.0
2017-Jun-14 14:00N 59°24' W 135°18'18 9.1 010 / 111013.2 5.4 8.6 11.0
2017-Jun-14 12:00N 59°06' W 135°12'1818.3 330 / 91013.2 5.4 8.6 11.0
2017-Jun-14 11:00N 58°48' W 135°06'1212.4 330 / 91013.2 5.4 8.6 11.0
2017-Jun-14 10:00N 58°36' W 135°00'1413.5 300 / 31013.5 5.4 7.9 11.0
2017-Jun-14 09:00N 58°24' W 134°48'2211.0 270 / 71013.8 5.4 9.0 11.0
2017-Jun-14 07:00N 58°06' W 134°24'7 6.8 080 / 61014.0 5.4 12.0 10.0
2017-Jun-14 06:00N 58°12' W 134°18'0 0.0 280 / 31014.010.8 9.0 10.0
2017-Jun-14 05:00N 58°12' W 134°18'0 0.0 170 / 31014.010.8 10.0 10.0
2017-Jun-14 04:00N 58°12' W 134°18'3 3.2 110 / 91014.0 5.4 10.0 10.0
2017-Jun-14 03:00N 58°12' W 134°24'0 0.0 110 / 91014.9 5.4 10.5 10.0
2017-Jun-14 02:00N 58°12' W 134°24'0 0.0 110 / 81015.0 5.4 11.0 10.0
2017-Jun-14 01:00N 58°12' W 134°24'3 1.6 110 / 81015.3 5.4 10.0 10.0
2017-Jun-13 23:00N 58°12' W 134°18'34 8.5 120 / 121015.0 5.4 9.0 10.0
2017-Jun-13 19:00N 57°42' W 133°48'1212.4 120 / 101016.4 2.2 10.0 10.0
2017-Jun-13 18:00N 57°30' W 133°42'2020.5 150 / 151016.4 2.2 10.0 10.0
2017-Jun-13 17:00N 57°12' W 134°00'1515.5 120 / 161015.9 2.2 10.0 10.0
2017-Jun-13 16:00N 57°00' W 134°18'1818.3 130 / 201015.4 5.4 7.5 12.0
2017-Jun-13 15:00N 56°42' W 134°24'1818.0 120 / 171015.9 5.4 8.6 12.0
2017-Jun-13 14:00N 56°24' W 134°24'1818.0 140 / 101015.9 5.4 8.6 12.0
2017-Jun-13 13:00N 56°06' W 134°24'1818.0 140 / 101015.9 5.4 8.6 12.0
2017-Jun-13 12:00N 55°48' W 134°24'2524.9 150 / 131015.9 5.4 8.6 12.0
2017-Jun-13 11:00N 55°24' W 134°12'2512.5 180 / 141016.3 5.4 7.8 12.0
2017-Jun-13 09:00N 55°00' W 134°00'1818.3 190 / 91016.9 5.4 7.8 12.0
2017-Jun-13 08:00N 54°42' W 133°54'2525.0 220 / 211017.2 5.4 8.6 12.0
2017-Jun-13 07:00N 54°18' W 133°42'1919.3 230 / 191017.7 5.4 12.0 12.0
2017-Jun-13 06:00N 54°00' W 133°30'3316.6 240 / 191018.1 5.4 12.0 12.0
2017-Jun-13 04:00N 53°30' W 133°06'2626.3 230 / 141018.6 5.4 12.0 12.0
2017-Jun-13 03:00N 53°06' W 132°48'2121.0 260 / 101019.1 5.4 12.0 12.0
2017-Jun-13 02:00N 52°48' W 132°30'1918.9 250 / 131019.4 5.4 9.9 12.0
2017-Jun-13 01:00N 52°36' W 132°06'2121.1 280 / 161019.4 5.4 9.9 12.0
2017-Jun-13 00:00N 52°18' W 131°48'1616.3 280 / 161019.4 5.4 9.9 12.0
2017-Jun-12 23:00N 52°06' W 131°30'2121.1 290 / 141019.4 5.4 9.9 12.0
2017-Jun-12 22:00N 51°48' W 131°12'1616.4 290 / 181019.4 5.4 9.9 12.0
2017-Jun-12 21:00N 51°36' W 130°54'16501650.1 290 / 151019.0 10.2 13.0
2017-Jun-12 20:00N 24°06' W 130°30'16201620.1 360 / 131019.0 9.9 13.0
2017-Jun-12 19:00N 51°06' W 130°06'7919.6 300 / 131019.010.8 9.9 13.0
2017-Jun-12 15:00N 50°12' W 128°36'   340 / 141018.9 5.4 11.5 12.0

Dump ship's entire track history